sensor_id;sensor_type;location;lat;lon;timestamp;temperature;humidity
56240;DHT22;42154;51.992;5.896;2024-03-08T00:00:43;4.00;99.90
56240;DHT22;42154;51.992;5.896;2024-03-08T00:03:09;3.90;99.90
56240;DHT22;42154;51.992;5.896;2024-03-08T00:05:36;4.00;99.90
56240;DHT22;42154;51.992;5.896;2024-03-08T00:08:05;3.90;99.90
56240;DHT22;42154;51.992;5.896;2024-03-08T00:10:31;3.90;99.90
56240;DHT22;42154;51.992;5.896;2024-03-08T00:12:57;3.90;99.90
56240;DHT22;42154;51.992;5.896;2024-03-08T00:15:23;3.90;99.90
56240;DHT22;42154;51.992;5.896;2024-03-08T00:17:49;3.90;99.90
56240;DHT22;42154;51.992;5.896;2024-03-08T00:20:16;3.90;99.90
56240;DHT22;42154;51.992;5.896;2024-03-08T00:22:43;3.80;99.90
56240;DHT22;42154;51.992;5.896;2024-03-08T00:25:09;3.80;99.90
56240;DHT22;42154;51.992;5.896;2024-03-08T00:27:36;3.80;99.90
56240;DHT22;42154;51.992;5.896;2024-03-08T00:30:02;3.80;99.90
56240;DHT22;42154;51.992;5.896;2024-03-08T00:32:28;3.80;99.90
56240;DHT22;42154;51.992;5.896;2024-03-08T00:34:54;3.80;99.90
56240;DHT22;42154;51.992;5.896;2024-03-08T00:37:20;3.70;99.90
56240;DHT22;42154;51.992;5.896;2024-03-08T00:39:51;3.70;99.90
56240;DHT22;42154;51.992;5.896;2024-03-08T00:42:18;3.70;99.90
56240;DHT22;42154;51.992;5.896;2024-03-08T00:44:44;3.70;99.90
56240;DHT22;42154;51.992;5.896;2024-03-08T00:47:10;3.70;99.90
56240;DHT22;42154;51.992;5.896;2024-03-08T00:49:36;3.70;99.90
56240;DHT22;42154;51.992;5.896;2024-03-08T00:52:06;3.60;99.90
56240;DHT22;42154;51.992;5.896;2024-03-08T00:54:35;3.70;99.90
56240;DHT22;42154;51.992;5.896;2024-03-08T00:57:04;3.60;99.90
56240;DHT22;42154;51.992;5.896;2024-03-08T00:59:30;3.60;99.90
56240;DHT22;42154;51.992;5.896;2024-03-08T01:01:59;3.60;99.90
56240;DHT22;42154;51.992;5.896;2024-03-08T01:04:28;3.60;99.90
56240;DHT22;42154;51.992;5.896;2024-03-08T01:06:58;3.60;99.90
56240;DHT22;42154;51.992;5.896;2024-03-08T01:09:24;3.60;99.90
56240;DHT22;42154;51.992;5.896;2024-03-08T01:11:50;3.50;99.90
56240;DHT22;42154;51.992;5.896;2024-03-08T01:14:16;3.50;99.90
56240;DHT22;42154;51.992;5.896;2024-03-08T01:16:42;3.50;99.90
56240;DHT22;42154;51.992;5.896;2024-03-08T01:19:08;3.50;99.90
56240;DHT22;42154;51.992;5.896;2024-03-08T01:21:34;3.50;99.90
56240;DHT22;42154;51.992;5.896;2024-03-08T01:24:00;3.40;99.90
56240;DHT22;42154;51.992;5.896;2024-03-08T01:26:26;3.40;99.90
56240;DHT22;42154;51.992;5.896;2024-03-08T01:28:51;3.50;99.90
56240;DHT22;42154;51.992;5.896;2024-03-08T01:31:17;3.40;99.90
56240;DHT22;42154;51.992;5.896;2024-03-08T01:33:43;3.40;99.90
56240;DHT22;42154;51.992;5.896;2024-03-08T01:36:09;3.40;99.90
56240;DHT22;42154;51.992;5.896;2024-03-08T01:38:34;3.40;99.90
56240;DHT22;42154;51.992;5.896;2024-03-08T01:41:01;3.40;99.90
56240;DHT22;42154;51.992;5.896;2024-03-08T01:43:28;3.30;99.90
56240;DHT22;42154;51.992;5.896;2024-03-08T01:45:58;3.30;99.90
56240;DHT22;42154;51.992;5.896;2024-03-08T01:48:25;3.30;99.90
56240;DHT22;42154;51.992;5.896;2024-03-08T01:50:52;3.30;99.90
56240;DHT22;42154;51.992;5.896;2024-03-08T01:53:20;3.30;99.90
56240;DHT22;42154;51.992;5.896;2024-03-08T01:55:47;3.30;99.90
56240;DHT22;42154;51.992;5.896;2024-03-08T01:58:14;3.20;99.90
56240;DHT22;42154;51.992;5.896;2024-03-08T02:00:46;3.20;99.90
56240;DHT22;42154;51.992;5.896;2024-03-08T02:03:15;3.20;99.90
56240;DHT22;42154;51.992;5.896;2024-03-08T02:05:41;3.20;99.90
56240;DHT22;42154;51.992;5.896;2024-03-08T02:08:08;3.10;99.90
56240;DHT22;42154;51.992;5.896;2024-03-08T02:10:38;3.10;99.90
56240;DHT22;42154;51.992;5.896;2024-03-08T02:13:05;3.10;99.90
56240;DHT22;42154;51.992;5.896;2024-03-08T02:18:15;3.00;99.90
56240;DHT22;42154;51.992;5.896;2024-03-08T02:20:43;3.00;99.90
56240;DHT22;42154;51.992;5.896;2024-03-08T02:23:09;3.00;99.90
56240;DHT22;42154;51.992;5.896;2024-03-08T02:25:35;2.90;99.90
56240;DHT22;42154;51.992;5.896;2024-03-08T02:28:01;2.90;99.90
56240;DHT22;42154;51.992;5.896;2024-03-08T02:30:27;2.90;99.90
56240;DHT22;42154;51.992;5.896;2024-03-08T02:32:55;2.90;99.90
56240;DHT22;42154;51.992;5.896;2024-03-08T02:35:21;2.90;99.90
56240;DHT22;42154;51.992;5.896;2024-03-08T02:37:47;2.90;99.90
56240;DHT22;42154;51.992;5.896;2024-03-08T02:40:13;2.80;99.90
56240;DHT22;42154;51.992;5.896;2024-03-08T02:42:39;2.80;99.90
56240;DHT22;42154;51.992;5.896;2024-03-08T02:45:06;2.80;99.90
56240;DHT22;42154;51.992;5.896;2024-03-08T02:47:32;2.80;99.90
56240;DHT22;42154;51.992;5.896;2024-03-08T02:49:58;2.70;99.90
56240;DHT22;42154;51.992;5.896;2024-03-08T02:52:24;2.70;99.90
56240;DHT22;42154;51.992;5.896;2024-03-08T02:54:50;2.70;99.90
56240;DHT22;42154;51.992;5.896;2024-03-08T02:57:15;2.70;99.90
56240;DHT22;42154;51.992;5.896;2024-03-08T02:59:41;2.70;99.90
56240;DHT22;42154;51.992;5.896;2024-03-08T03:02:07;2.60;99.90
56240;DHT22;42154;51.992;5.896;2024-03-08T03:04:35;2.60;99.90
56240;DHT22;42154;51.992;5.896;2024-03-08T03:07:01;2.60;99.90
56240;DHT22;42154;51.992;5.896;2024-03-08T03:09:27;2.60;99.90
56240;DHT22;42154;51.992;5.896;2024-03-08T03:11:54;2.60;99.90
56240;DHT22;42154;51.992;5.896;2024-03-08T03:14:21;2.50;99.90
56240;DHT22;42154;51.992;5.896;2024-03-08T03:16:47;2.60;99.90
56240;DHT22;42154;51.992;5.896;2024-03-08T03:19:13;2.50;99.90
56240;DHT22;42154;51.992;5.896;2024-03-08T03:21:40;2.50;99.90
56240;DHT22;42154;51.992;5.896;2024-03-08T03:24:08;2.50;99.90
56240;DHT22;42154;51.992;5.896;2024-03-08T03:26:38;2.40;99.90
56240;DHT22;42154;51.992;5.896;2024-03-08T03:29:07;2.40;99.90
56240;DHT22;42154;51.992;5.896;2024-03-08T03:31:37;2.40;99.90
56240;DHT22;42154;51.992;5.896;2024-03-08T03:34:03;2.40;99.90
56240;DHT22;42154;51.992;5.896;2024-03-08T03:36:30;2.40;99.90
56240;DHT22;42154;51.992;5.896;2024-03-08T03:38:56;2.40;99.90
56240;DHT22;42154;51.992;5.896;2024-03-08T03:41:32;2.40;99.90
56240;DHT22;42154;51.992;5.896;2024-03-08T03:43:57;2.40;99.90
56240;DHT22;42154;51.992;5.896;2024-03-08T03:46:24;2.30;99.90
56240;DHT22;42154;51.992;5.896;2024-03-08T03:48:54;2.30;99.90
56240;DHT22;42154;51.992;5.896;2024-03-08T03:51:19;2.30;99.90
56240;DHT22;42154;51.992;5.896;2024-03-08T03:53:46;2.30;99.90
56240;DHT22;42154;51.992;5.896;2024-03-08T03:56:12;2.30;99.90
56240;DHT22;42154;51.992;5.896;2024-03-08T03:58:38;2.30;99.90
56240;DHT22;42154;51.992;5.896;2024-03-08T04:01:05;2.30;99.90
56240;DHT22;42154;51.992;5.896;2024-03-08T04:03:31;2.30;99.90
56240;DHT22;42154;51.992;5.896;2024-03-08T04:05:57;2.20;99.90
56240;DHT22;42154;51.992;5.896;2024-03-08T04:08:23;2.30;99.90
56240;DHT22;42154;51.992;5.896;2024-03-08T04:10:51;2.20;99.90
56240;DHT22;42154;51.992;5.896;2024-03-08T04:13:17;2.20;99.90
56240;DHT22;42154;51.992;5.896;2024-03-08T04:15:43;2.20;99.90
56240;DHT22;42154;51.992;5.896;2024-03-08T04:18:10;2.20;99.90
56240;DHT22;42154;51.992;5.896;2024-03-08T04:20:35;2.20;99.90
56240;DHT22;42154;51.992;5.896;2024-03-08T04:23:02;2.10;99.90
56240;DHT22;42154;51.992;5.896;2024-03-08T04:25:28;2.10;99.90
56240;DHT22;42154;51.992;5.896;2024-03-08T04:27:53;2.10;99.90
56240;DHT22;42154;51.992;5.896;2024-03-08T04:30:19;2.10;99.90
56240;DHT22;42154;51.992;5.896;2024-03-08T04:32:46;2.10;99.90
56240;DHT22;42154;51.992;5.896;2024-03-08T04:35:13;2.10;99.90
56240;DHT22;42154;51.992;5.896;2024-03-08T04:37:40;2.10;99.90
56240;DHT22;42154;51.992;5.896;2024-03-08T04:40:06;2.10;99.90
56240;DHT22;42154;51.992;5.896;2024-03-08T04:42:32;2.10;99.90
56240;DHT22;42154;51.992;5.896;2024-03-08T04:44:59;2.10;99.90
56240;DHT22;42154;51.992;5.896;2024-03-08T04:47:25;2.10;99.90
56240;DHT22;42154;51.992;5.896;2024-03-08T04:49:51;2.10;99.90
56240;DHT22;42154;51.992;5.896;2024-03-08T04:52:17;2.00;99.90
56240;DHT22;42154;51.992;5.896;2024-03-08T04:54:43;2.00;99.90
56240;DHT22;42154;51.992;5.896;2024-03-08T04:57:10;2.00;99.90
56240;DHT22;42154;51.992;5.896;2024-03-08T04:59:36;2.00;99.90
56240;DHT22;42154;51.992;5.896;2024-03-08T05:02:02;2.00;99.90
56240;DHT22;42154;51.992;5.896;2024-03-08T05:04:28;2.00;99.90
56240;DHT22;42154;51.992;5.896;2024-03-08T05:06:55;2.00;99.90
56240;DHT22;42154;51.992;5.896;2024-03-08T05:09:21;2.00;99.90
56240;DHT22;42154;51.992;5.896;2024-03-08T05:11:47;2.00;99.90
56240;DHT22;42154;51.992;5.896;2024-03-08T05:14:14;2.00;99.90
56240;DHT22;42154;51.992;5.896;2024-03-08T05:16:46;2.00;99.90
56240;DHT22;42154;51.992;5.896;2024-03-08T05:19:15;2.00;99.90
56240;DHT22;42154;51.992;5.896;2024-03-08T05:21:46;2.00;99.90
56240;DHT22;42154;51.992;5.896;2024-03-08T05:24:12;1.90;99.90
56240;DHT22;42154;51.992;5.896;2024-03-08T05:26:39;1.90;99.90
56240;DHT22;42154;51.992;5.896;2024-03-08T05:29:05;1.90;99.90
56240;DHT22;42154;51.992;5.896;2024-03-08T05:31:43;1.90;99.90
56240;DHT22;42154;51.992;5.896;2024-03-08T05:34:11;2.00;99.90
56240;DHT22;42154;51.992;5.896;2024-03-08T05:36:41;1.90;99.90
56240;DHT22;42154;51.992;5.896;2024-03-08T05:39:09;1.90;99.90
56240;DHT22;42154;51.992;5.896;2024-03-08T05:41:38;1.90;99.90
56240;DHT22;42154;51.992;5.896;2024-03-08T05:44:04;1.90;99.90
56240;DHT22;42154;51.992;5.896;2024-03-08T05:46:30;1.90;99.90
56240;DHT22;42154;51.992;5.896;2024-03-08T05:48:56;1.90;99.90
56240;DHT22;42154;51.992;5.896;2024-03-08T05:51:24;1.90;99.90
56240;DHT22;42154;51.992;5.896;2024-03-08T05:53:53;1.90;99.90
56240;DHT22;42154;51.992;5.896;2024-03-08T05:56:19;1.90;99.90
56240;DHT22;42154;51.992;5.896;2024-03-08T05:58:45;1.90;99.90
56240;DHT22;42154;51.992;5.896;2024-03-08T06:01:11;1.90;99.90
56240;DHT22;42154;51.992;5.896;2024-03-08T06:03:38;1.90;99.90
56240;DHT22;42154;51.992;5.896;2024-03-08T06:06:14;1.90;99.90
56240;DHT22;42154;51.992;5.896;2024-03-08T06:08:40;1.90;99.90
56240;DHT22;42154;51.992;5.896;2024-03-08T06:11:09;1.90;99.90
56240;DHT22;42154;51.992;5.896;2024-03-08T06:13:35;1.90;99.90
56240;DHT22;42154;51.992;5.896;2024-03-08T06:16:01;1.80;99.90
56240;DHT22;42154;51.992;5.896;2024-03-08T06:18:36;1.90;99.90
56240;DHT22;42154;51.992;5.896;2024-03-08T06:21:08;1.90;99.90
56240;DHT22;42154;51.992;5.896;2024-03-08T06:23:38;1.90;99.90
56240;DHT22;42154;51.992;5.896;2024-03-08T06:26:07;1.80;99.90
56240;DHT22;42154;51.992;5.896;2024-03-08T06:28:33;1.90;99.90
56240;DHT22;42154;51.992;5.896;2024-03-08T06:31:01;1.90;99.90
56240;DHT22;42154;51.992;5.896;2024-03-08T06:33:27;1.90;99.90
56240;DHT22;42154;51.992;5.896;2024-03-08T06:35:56;1.90;99.90
56240;DHT22;42154;51.992;5.896;2024-03-08T06:38:23;1.90;99.90
56240;DHT22;42154;51.992;5.896;2024-03-08T06:40:49;1.80;99.90
56240;DHT22;42154;51.992;5.896;2024-03-08T06:43:17;1.90;99.90
56240;DHT22;42154;51.992;5.896;2024-03-08T06:45:44;1.90;99.90
56240;DHT22;42154;51.992;5.896;2024-03-08T06:48:19;1.90;99.90
56240;DHT22;42154;51.992;5.896;2024-03-08T06:50:46;2.00;99.90
56240;DHT22;42154;51.992;5.896;2024-03-08T06:53:13;2.00;99.90
56240;DHT22;42154;51.992;5.896;2024-03-08T06:55:39;2.00;99.90
56240;DHT22;42154;51.992;5.896;2024-03-08T06:58:05;2.00;99.90
56240;DHT22;42154;51.992;5.896;2024-03-08T07:00:32;2.10;99.90
56240;DHT22;42154;51.992;5.896;2024-03-08T07:02:59;2.10;99.90
56240;DHT22;42154;51.992;5.896;2024-03-08T07:05:30;2.10;99.90
56240;DHT22;42154;51.992;5.896;2024-03-08T07:07:56;2.20;99.90
56240;DHT22;42154;51.992;5.896;2024-03-08T07:10:24;2.20;99.90
56240;DHT22;42154;51.992;5.896;2024-03-08T07:12:51;2.20;99.90
56240;DHT22;42154;51.992;5.896;2024-03-08T07:15:18;2.20;99.90
56240;DHT22;42154;51.992;5.896;2024-03-08T07:17:45;2.30;99.90
56240;DHT22;42154;51.992;5.896;2024-03-08T07:20:12;2.30;99.90
56240;DHT22;42154;51.992;5.896;2024-03-08T07:22:39;2.30;99.90
56240;DHT22;42154;51.992;5.896;2024-03-08T07:25:06;2.30;99.90
56240;DHT22;42154;51.992;5.896;2024-03-08T07:27:53;2.40;99.90
56240;DHT22;42154;51.992;5.896;2024-03-08T07:30:23;2.50;99.90
56240;DHT22;42154;51.992;5.896;2024-03-08T07:33:08;2.50;99.90
56240;DHT22;42154;51.992;5.896;2024-03-08T07:35:40;2.50;99.90
56240;DHT22;42154;51.992;5.896;2024-03-08T07:38:09;2.50;99.90
56240;DHT22;42154;51.992;5.896;2024-03-08T07:40:36;2.60;99.90
56240;DHT22;42154;51.992;5.896;2024-03-08T07:43:04;2.60;99.90
56240;DHT22;42154;51.992;5.896;2024-03-08T07:45:30;2.70;99.90
56240;DHT22;42154;51.992;5.896;2024-03-08T07:47:56;2.70;99.90
56240;DHT22;42154;51.992;5.896;2024-03-08T07:50:22;2.70;99.90
56240;DHT22;42154;51.992;5.896;2024-03-08T07:52:48;2.80;99.90
56240;DHT22;42154;51.992;5.896;2024-03-08T07:55:14;2.80;99.90
56240;DHT22;42154;51.992;5.896;2024-03-08T07:57:40;2.80;99.90
56240;DHT22;42154;51.992;5.896;2024-03-08T08:00:09;2.90;99.90
56240;DHT22;42154;51.992;5.896;2024-03-08T08:02:36;3.00;99.90
56240;DHT22;42154;51.992;5.896;2024-03-08T08:05:02;3.00;99.90
56240;DHT22;42154;51.992;5.896;2024-03-08T08:07:29;3.10;99.90
56240;DHT22;42154;51.992;5.896;2024-03-08T08:09:55;3.10;99.90
56240;DHT22;42154;51.992;5.896;2024-03-08T08:12:20;3.20;99.90
56240;DHT22;42154;51.992;5.896;2024-03-08T08:14:46;3.20;99.90
56240;DHT22;42154;51.992;5.896;2024-03-08T08:17:12;3.30;99.90
56240;DHT22;42154;51.992;5.896;2024-03-08T08:19:40;3.30;99.90
56240;DHT22;42154;51.992;5.896;2024-03-08T08:22:06;3.30;99.90
56240;DHT22;42154;51.992;5.896;2024-03-08T08:24:34;3.40;99.90
56240;DHT22;42154;51.992;5.896;2024-03-08T08:27:03;3.40;99.90
56240;DHT22;42154;51.992;5.896;2024-03-08T08:29:29;3.50;99.90
56240;DHT22;42154;51.992;5.896;2024-03-08T08:31:58;3.50;99.90
56240;DHT22;42154;51.992;5.896;2024-03-08T08:34:25;3.50;99.90
56240;DHT22;42154;51.992;5.896;2024-03-08T08:36:52;3.60;99.90
56240;DHT22;42154;51.992;5.896;2024-03-08T08:39:18;3.70;99.90
56240;DHT22;42154;51.992;5.896;2024-03-08T08:41:44;3.70;99.90
56240;DHT22;42154;51.992;5.896;2024-03-08T08:44:10;3.80;99.90
56240;DHT22;42154;51.992;5.896;2024-03-08T08:46:38;3.90;99.90
56240;DHT22;42154;51.992;5.896;2024-03-08T08:49:04;3.90;99.90
56240;DHT22;42154;51.992;5.896;2024-03-08T08:51:31;3.90;99.90
56240;DHT22;42154;51.992;5.896;2024-03-08T08:53:59;4.00;99.90
56240;DHT22;42154;51.992;5.896;2024-03-08T08:56:25;4.00;99.90
56240;DHT22;42154;51.992;5.896;2024-03-08T08:58:52;4.10;99.90
56240;DHT22;42154;51.992;5.896;2024-03-08T09:01:19;4.10;99.90
56240;DHT22;42154;51.992;5.896;2024-03-08T09:03:45;4.30;99.90
56240;DHT22;42154;51.992;5.896;2024-03-08T09:06:15;4.30;99.90
56240;DHT22;42154;51.992;5.896;2024-03-08T09:08:44;4.40;99.90
56240;DHT22;42154;51.992;5.896;2024-03-08T09:11:11;4.50;99.90
56240;DHT22;42154;51.992;5.896;2024-03-08T09:13:37;4.50;99.90
56240;DHT22;42154;51.992;5.896;2024-03-08T09:16:03;4.60;99.90
56240;DHT22;42154;51.992;5.896;2024-03-08T09:18:31;4.70;99.90
56240;DHT22;42154;51.992;5.896;2024-03-08T09:20:58;4.70;99.90
56240;DHT22;42154;51.992;5.896;2024-03-08T09:23:25;4.80;99.90
56240;DHT22;42154;51.992;5.896;2024-03-08T09:25:56;4.80;99.90
56240;DHT22;42154;51.992;5.896;2024-03-08T09:28:23;4.90;99.90
56240;DHT22;42154;51.992;5.896;2024-03-08T09:30:49;5.00;99.90
56240;DHT22;42154;51.992;5.896;2024-03-08T09:33:15;5.10;99.90
56240;DHT22;42154;51.992;5.896;2024-03-08T09:35:45;5.20;99.90
56240;DHT22;42154;51.992;5.896;2024-03-08T09:38:12;5.20;99.90
56240;DHT22;42154;51.992;5.896;2024-03-08T09:40:41;5.30;99.90
56240;DHT22;42154;51.992;5.896;2024-03-08T09:43:07;5.30;99.90
56240;DHT22;42154;51.992;5.896;2024-03-08T09:45:36;5.40;99.90
56240;DHT22;42154;51.992;5.896;2024-03-08T09:48:10;5.50;99.90
56240;DHT22;42154;51.992;5.896;2024-03-08T09:50:40;5.50;99.90
56240;DHT22;42154;51.992;5.896;2024-03-08T09:53:06;5.60;99.90
56240;DHT22;42154;51.992;5.896;2024-03-08T09:55:39;5.70;99.90
56240;DHT22;42154;51.992;5.896;2024-03-08T09:58:15;5.70;99.90
56240;DHT22;42154;51.992;5.896;2024-03-08T10:00:53;5.70;99.90
56240;DHT22;42154;51.992;5.896;2024-03-08T10:03:22;5.80;99.90
56240;DHT22;42154;51.992;5.896;2024-03-08T10:05:48;5.90;99.90
56240;DHT22;42154;51.992;5.896;2024-03-08T10:08:14;5.90;99.90
56240;DHT22;42154;51.992;5.896;2024-03-08T10:10:40;6.00;99.90
56240;DHT22;42154;51.992;5.896;2024-03-08T10:13:10;6.00;99.90
56240;DHT22;42154;51.992;5.896;2024-03-08T10:15:36;6.10;99.90
56240;DHT22;42154;51.992;5.896;2024-03-08T10:18:04;6.20;99.90
56240;DHT22;42154;51.992;5.896;2024-03-08T10:20:33;6.30;99.90
56240;DHT22;42154;51.992;5.896;2024-03-08T10:23:03;6.30;99.90
56240;DHT22;42154;51.992;5.896;2024-03-08T10:25:31;6.40;99.90
56240;DHT22;42154;51.992;5.896;2024-03-08T10:27:57;6.50;99.90
56240;DHT22;42154;51.992;5.896;2024-03-08T10:30:23;6.60;99.90
56240;DHT22;42154;51.992;5.896;2024-03-08T10:32:49;6.60;99.90
56240;DHT22;42154;51.992;5.896;2024-03-08T10:35:17;6.60;99.90
56240;DHT22;42154;51.992;5.896;2024-03-08T10:37:51;6.70;99.90
56240;DHT22;42154;51.992;5.896;2024-03-08T10:40:35;6.80;99.90
56240;DHT22;42154;51.992;5.896;2024-03-08T10:43:03;6.80;99.90
56240;DHT22;42154;51.992;5.896;2024-03-08T10:45:35;6.90;99.90
56240;DHT22;42154;51.992;5.896;2024-03-08T10:50:53;7.10;99.90
56240;DHT22;42154;51.992;5.896;2024-03-08T10:53:20;7.20;99.90
56240;DHT22;42154;51.992;5.896;2024-03-08T10:55:49;7.30;99.90
56240;DHT22;42154;51.992;5.896;2024-03-08T10:58:21;7.40;99.90
56240;DHT22;42154;51.992;5.896;2024-03-08T11:00:48;7.50;99.90
56240;DHT22;42154;51.992;5.896;2024-03-08T11:06:17;7.60;99.90
56240;DHT22;42154;51.992;5.896;2024-03-08T11:08:45;7.60;99.90
56240;DHT22;42154;51.992;5.896;2024-03-08T11:11:32;7.60;99.90
56240;DHT22;42154;51.992;5.896;2024-03-08T11:14:01;7.70;99.90
56240;DHT22;42154;51.992;5.896;2024-03-08T11:21:36;8.00;99.90
56240;DHT22;42154;51.992;5.896;2024-03-08T11:24:13;8.00;99.90
56240;DHT22;42154;51.992;5.896;2024-03-08T11:26:40;8.10;99.90
56240;DHT22;42154;51.992;5.896;2024-03-08T11:32:12;8.30;99.90
56240;DHT22;42154;51.992;5.896;2024-03-08T11:34:41;8.40;99.90
56240;DHT22;42154;51.992;5.896;2024-03-08T11:37:15;8.40;99.90
56240;DHT22;42154;51.992;5.896;2024-03-08T11:39:47;8.50;99.90
56240;DHT22;42154;51.992;5.896;2024-03-08T11:42:19;8.60;99.90
56240;DHT22;42154;51.992;5.896;2024-03-08T11:44:46;8.70;99.90
56240;DHT22;42154;51.992;5.896;2024-03-08T11:47:13;8.70;99.90
56240;DHT22;42154;51.992;5.896;2024-03-08T11:49:40;8.80;99.90
56240;DHT22;42154;51.992;5.896;2024-03-08T11:52:16;8.80;99.90
56240;DHT22;42154;51.992;5.896;2024-03-08T11:54:47;8.80;99.90
56240;DHT22;42154;51.992;5.896;2024-03-08T11:57:18;8.80;99.90
56240;DHT22;42154;51.992;5.896;2024-03-08T11:59:51;8.90;99.90
56240;DHT22;42154;51.992;5.896;2024-03-08T12:02:17;8.90;99.90
56240;DHT22;42154;51.992;5.896;2024-03-08T12:04:45;8.90;99.90
56240;DHT22;42154;51.992;5.896;2024-03-08T12:07:11;9.00;99.90
56240;DHT22;42154;51.992;5.896;2024-03-08T12:09:42;9.00;99.90
56240;DHT22;42154;51.992;5.896;2024-03-08T12:12:12;9.10;99.90
56240;DHT22;42154;51.992;5.896;2024-03-08T12:14:38;9.20;99.90
56240;DHT22;42154;51.992;5.896;2024-03-08T12:17:08;9.20;99.90
56240;DHT22;42154;51.992;5.896;2024-03-08T12:19:36;9.20;99.90
56240;DHT22;42154;51.992;5.896;2024-03-08T12:22:15;9.20;99.90
56240;DHT22;42154;51.992;5.896;2024-03-08T12:24:40;9.30;99.90
56240;DHT22;42154;51.992;5.896;2024-03-08T12:27:20;9.30;99.90
56240;DHT22;42154;51.992;5.896;2024-03-08T12:29:46;9.40;99.90
56240;DHT22;42154;51.992;5.896;2024-03-08T12:32:12;9.40;99.90
56240;DHT22;42154;51.992;5.896;2024-03-08T12:34:38;9.40;99.90
56240;DHT22;42154;51.992;5.896;2024-03-08T12:37:05;9.40;99.90
56240;DHT22;42154;51.992;5.896;2024-03-08T12:39:32;9.40;99.90
56240;DHT22;42154;51.992;5.896;2024-03-08T12:41:58;9.50;99.90
56240;DHT22;42154;51.992;5.896;2024-03-08T12:44:25;9.50;99.90
56240;DHT22;42154;51.992;5.896;2024-03-08T12:46:51;9.60;99.90
56240;DHT22;42154;51.992;5.896;2024-03-08T12:49:19;9.60;99.90
56240;DHT22;42154;51.992;5.896;2024-03-08T12:51:48;9.60;99.90
56240;DHT22;42154;51.992;5.896;2024-03-08T12:54:14;9.70;99.90
56240;DHT22;42154;51.992;5.896;2024-03-08T12:56:40;9.60;99.90
56240;DHT22;42154;51.992;5.896;2024-03-08T12:59:07;9.70;99.90
56240;DHT22;42154;51.992;5.896;2024-03-08T13:01:33;9.70;99.90
56240;DHT22;42154;51.992;5.896;2024-03-08T13:04:03;9.70;99.90
56240;DHT22;42154;51.992;5.896;2024-03-08T13:06:29;9.70;99.90
56240;DHT22;42154;51.992;5.896;2024-03-08T13:08:57;9.80;99.90
56240;DHT22;42154;51.992;5.896;2024-03-08T13:11:24;9.80;99.90
56240;DHT22;42154;51.992;5.896;2024-03-08T13:13:51;9.80;99.90
56240;DHT22;42154;51.992;5.896;2024-03-08T13:16:18;9.80;99.90
56240;DHT22;42154;51.992;5.896;2024-03-08T13:18:48;9.80;99.90
56240;DHT22;42154;51.992;5.896;2024-03-08T13:21:14;9.80;99.90
56240;DHT22;42154;51.992;5.896;2024-03-08T13:23:44;9.90;99.90
56240;DHT22;42154;51.992;5.896;2024-03-08T13:26:15;9.90;99.90
56240;DHT22;42154;51.992;5.896;2024-03-08T13:28:47;9.90;99.90
56240;DHT22;42154;51.992;5.896;2024-03-08T13:31:20;9.80;99.90
56240;DHT22;42154;51.992;5.896;2024-03-08T13:33:46;9.90;99.90
56240;DHT22;42154;51.992;5.896;2024-03-08T13:36:13;9.90;99.90
56240;DHT22;42154;51.992;5.896;2024-03-08T13:41:09;9.90;99.90
56240;DHT22;42154;51.992;5.896;2024-03-08T13:43:35;10.00;99.90
56240;DHT22;42154;51.992;5.896;2024-03-08T13:46:02;10.00;99.90
56240;DHT22;42154;51.992;5.896;2024-03-08T13:48:28;10.00;99.90
56240;DHT22;42154;51.992;5.896;2024-03-08T13:50:54;10.00;99.90
56240;DHT22;42154;51.992;5.896;2024-03-08T13:53:22;10.00;99.90
56240;DHT22;42154;51.992;5.896;2024-03-08T13:55:49;10.00;99.90
56240;DHT22;42154;51.992;5.896;2024-03-08T13:58:16;10.10;99.90
56240;DHT22;42154;51.992;5.896;2024-03-08T14:00:42;10.20;99.90
56240;DHT22;42154;51.992;5.896;2024-03-08T14:03:10;10.20;99.90
56240;DHT22;42154;51.992;5.896;2024-03-08T14:05:41;10.20;99.90
56240;DHT22;42154;51.992;5.896;2024-03-08T14:08:08;10.20;99.90
56240;DHT22;42154;51.992;5.896;2024-03-08T14:10:35;10.20;99.90
56240;DHT22;42154;51.992;5.896;2024-03-08T14:13:03;10.20;99.90
56240;DHT22;42154;51.992;5.896;2024-03-08T14:15:31;10.20;99.90
56240;DHT22;42154;51.992;5.896;2024-03-08T14:17:57;10.20;99.90
56240;DHT22;42154;51.992;5.896;2024-03-08T14:20:23;10.20;99.90
56240;DHT22;42154;51.992;5.896;2024-03-08T14:22:54;10.20;99.90
56240;DHT22;42154;51.992;5.896;2024-03-08T14:25:21;10.20;99.90
56240;DHT22;42154;51.992;5.896;2024-03-08T14:27:53;10.20;99.90
56240;DHT22;42154;51.992;5.896;2024-03-08T14:30:19;10.30;99.90
56240;DHT22;42154;51.992;5.896;2024-03-08T14:33:07;10.30;99.90
56240;DHT22;42154;51.992;5.896;2024-03-08T14:35:38;10.30;99.90
56240;DHT22;42154;51.992;5.896;2024-03-08T14:38:04;10.30;99.90
56240;DHT22;42154;51.992;5.896;2024-03-08T14:40:34;10.40;99.90
56240;DHT22;42154;51.992;5.896;2024-03-08T14:42:59;10.30;99.90
56240;DHT22;42154;51.992;5.896;2024-03-08T14:45:26;10.30;99.90
56240;DHT22;42154;51.992;5.896;2024-03-08T14:47:52;10.40;99.90
56240;DHT22;42154;51.992;5.896;2024-03-08T14:50:22;10.30;99.90
56240;DHT22;42154;51.992;5.896;2024-03-08T14:52:49;10.30;99.90
56240;DHT22;42154;51.992;5.896;2024-03-08T14:55:15;10.30;99.90
56240;DHT22;42154;51.992;5.896;2024-03-08T14:57:41;10.30;99.90
56240;DHT22;42154;51.992;5.896;2024-03-08T15:00:11;10.30;99.90
56240;DHT22;42154;51.992;5.896;2024-03-08T15:02:57;10.30;99.90
56240;DHT22;42154;51.992;5.896;2024-03-08T15:05:23;10.30;99.90
56240;DHT22;42154;51.992;5.896;2024-03-08T15:07:58;10.30;99.90
56240;DHT22;42154;51.992;5.896;2024-03-08T15:10:26;10.30;99.90
56240;DHT22;42154;51.992;5.896;2024-03-08T15:12:54;10.30;99.90
56240;DHT22;42154;51.992;5.896;2024-03-08T15:15:21;10.30;99.90
56240;DHT22;42154;51.992;5.896;2024-03-08T15:17:50;10.20;99.90
56240;DHT22;42154;51.992;5.896;2024-03-08T15:20:17;10.30;99.90
56240;DHT22;42154;51.992;5.896;2024-03-08T15:22:49;10.20;99.90
56240;DHT22;42154;51.992;5.896;2024-03-08T15:25:16;10.10;99.90
56240;DHT22;42154;51.992;5.896;2024-03-08T15:27:54;10.10;99.90
56240;DHT22;42154;51.992;5.896;2024-03-08T15:30:21;10.10;99.90
56240;DHT22;42154;51.992;5.896;2024-03-08T15:32:54;10.10;99.90
56240;DHT22;42154;51.992;5.896;2024-03-08T15:35:25;10.20;99.90
56240;DHT22;42154;51.992;5.896;2024-03-08T15:37:52;10.20;99.90
56240;DHT22;42154;51.992;5.896;2024-03-08T15:40:18;10.20;99.90
56240;DHT22;42154;51.992;5.896;2024-03-08T15:42:59;10.20;99.90
56240;DHT22;42154;51.992;5.896;2024-03-08T15:45:25;10.20;99.90
56240;DHT22;42154;51.992;5.896;2024-03-08T15:47:55;10.10;99.90
56240;DHT22;42154;51.992;5.896;2024-03-08T15:50:21;10.10;99.90
56240;DHT22;42154;51.992;5.896;2024-03-08T15:52:49;10.10;99.90
56240;DHT22;42154;51.992;5.896;2024-03-08T15:55:21;10.10;99.90
56240;DHT22;42154;51.992;5.896;2024-03-08T15:57:50;10.00;99.90
56240;DHT22;42154;51.992;5.896;2024-03-08T16:00:18;10.00;99.90
56240;DHT22;42154;51.992;5.896;2024-03-08T16:03:00;9.90;99.90
56240;DHT22;42154;51.992;5.896;2024-03-08T16:05:28;9.90;99.90
56240;DHT22;42154;51.992;5.896;2024-03-08T16:07:54;9.90;99.90